Map

Track Data

SID SEASON NUMBER BASIN SUBBASIN NAME ISO_TIME NATURE LAT LON WMO_WIND WMO_PRES WMO_AGENCY TRACK_TYPE DIST2LAND LANDFALL IFLAG USA_AGENCY USA_ATCF_ID USA_LAT USA_LON USA_RECORD USA_STATUS USA_WIND USA_PRES USA_SSHS USA_R34_NE USA_R34_SE USA_R34_SW USA_R34_NW USA_R50_NE USA_R50_SE USA_R50_SW USA_R50_NW USA_R64_NE USA_R64_SE USA_R64_SW USA_R64_NW USA_POCI USA_ROCI USA_RMW USA_EYE TOKYO_LAT TOKYO_LON TOKYO_GRADE TOKYO_WIND TOKYO_PRES TOKYO_R50_DIR TOKYO_R50_LONG TOKYO_R50_SHORT TOKYO_R30_DIR TOKYO_R30_LONG TOKYO_R30_SHORT TOKYO_LAND CMA_LAT CMA_LON CMA_CAT CMA_WIND CMA_PRES HKO_LAT HKO_LON HKO_CAT HKO_WIND HKO_PRES NEWDELHI_LAT NEWDELHI_LON NEWDELHI_GRADE NEWDELHI_WIND NEWDELHI_PRES NEWDELHI_CI NEWDELHI_DP NEWDELHI_POCI REUNION_LAT REUNION_LON REUNION_TYPE REUNION_WIND REUNION_PRES REUNION_TNUM REUNION_CI REUNION_RMW REUNION_R34_NE REUNION_R34_SE REUNION_R34_SW REUNION_R34_NW REUNION_R50_NE REUNION_R50_SE REUNION_R50_SW REUNION_R50_NW REUNION_R64_NE REUNION_R64_SE REUNION_R64_SW REUNION_R64_NW BOM_LAT BOM_LON BOM_TYPE BOM_WIND BOM_PRES BOM_TNUM BOM_CI BOM_RMW BOM_R34_NE BOM_R34_SE BOM_R34_SW BOM_R34_NW BOM_R50_NE BOM_R50_SE BOM_R50_SW BOM_R50_NW BOM_R64_NE BOM_R64_SE BOM_R64_SW BOM_R64_NW BOM_ROCI BOM_POCI BOM_EYE BOM_POS_METHOD BOM_PRES_METHOD NADI_LAT NADI_LON NADI_CAT NADI_WIND NADI_PRES WELLINGTON_LAT WELLINGTON_LON WELLINGTON_WIND WELLINGTON_PRES DS824_LAT DS824_LON DS824_STAGE DS824_WIND DS824_PRES TD9636_LAT TD9636_LON TD9636_STAGE TD9636_WIND TD9636_PRES TD9635_LAT TD9635_LON TD9635_WIND TD9635_PRES TD9635_ROCI NEUMANN_LAT NEUMANN_LON NEUMANN_CLASS NEUMANN_WIND NEUMANN_PRES MLC_LAT MLC_LON MLC_CLASS MLC_WIND MLC_PRES USA_GUST BOM_GUST BOM_GUST_PER REUNION_GUST REUNION_GUST_PER USA_SEAHGT USA_SEARAD_NE USA_SEARAD_SE USA_SEARAD_SW USA_SEARAD_NW STORM_SPEED STORM_DIR
1965251N16248 1965 90 EP MM FLORENCE 1965-09-08 00:00:00 TS 16.2000 -111.800 25 hurdat_epa main 772 772 O________OO___ hurdat_epa EP081965 16.2000 -111.800 TD 25 -1 16.2000 -111.800 TC 25 16.2000 -111.800 1 6 280
1965251N16248 1965 90 EP MM FLORENCE 1965-09-08 03:00:00 TS 16.2498 -112.103 main 781 770 P________PP___ EP081965 16.2551 -112.112 TD 25 -1 16.2551 -112.112 TC 25 16.2283 -112.064 1 6 279
1965251N16248 1965 90 EP MM FLORENCE 1965-09-08 06:00:00 TS 16.2930 -112.387 25 hurdat_epa main 779 779 O________OP___ hurdat_epa EP081965 16.3000 -112.400 TD 25 -1 16.3000 -112.400 TC 25 16.2651 -112.333 1 5 279
1965251N16248 1965 90 EP MM FLORENCE 1965-09-08 09:00:00 TS 16.3318 -112.642 main 786 780 P________PP___ EP081965 16.3349 -112.650 TD 25 -1 16.3349 -112.650 TC 25 16.3194 -112.610 1 5 282
1965251N16248 1965 90 EP MM FLORENCE 1965-09-08 12:00:00 TS 16.4000 -112.900 25 hurdat_epa main 787 781 O________OO___ hurdat_epa EP081965 16.4000 -112.900 TD 25 -1 16.4000 -112.900 TC 25 16.4000 -112.900 1 6 291
1965251N16248 1965 90 EP MM FLORENCE 1965-09-08 15:00:00 TS 16.5363 -113.195 main 790 779 P________PP___ EP081965 16.5425 -113.192 TD 25 -1 16.5425 -113.192 TC 25 16.5116 -113.205 1 6 297
1965251N16248 1965 90 EP MM FLORENCE 1965-09-08 18:00:00 TS 16.6885 -113.503 25 hurdat_epa main 784 784 O________OP___ hurdat_epa EP081965 16.7000 -113.500 TD 25 -1 16.7000 -113.500 TC 25 16.6426 -113.515 1 7 294
1965251N16248 1965 90 EP MM FLORENCE 1965-09-08 21:00:00 TS 16.8015 -113.816 main 789 789 P________PP___ EP081965 16.8075 -113.815 TD 35 0 16.8075 -113.815 TC 35 16.7772 -113.817 1 6 290
1965251N16248 1965 90 EP MM FLORENCE 1965-09-09 00:00:00 TS 16.9000 -114.100 45 hurdat_epa main 796 792 O________OO___ hurdat_epa EP081965 16.9000 -114.100 TS 45 0 16.9000 -114.100 TC 45 16.9000 -114.100 2 5 293
1965251N16248 1965 90 EP MM FLORENCE 1965-09-09 03:00:00 TS 17.0038 -114.315 main 798 794 P________PP___ EP081965 17.0074 -114.308 TS 45 0 17.0074 -114.308 TC 45 16.9891 -114.343 2 4 296
1965251N16248 1965 90 EP MM FLORENCE 1965-09-09 06:00:00 TS 17.0929 -114.513 45 hurdat_epa main 801 801 O________OP___ hurdat_epa EP081965 17.1000 -114.500 TS 45 0 17.1000 -114.500 TC 45 17.0647 -114.565 2 4 290
1965251N16248 1965 90 EP MM FLORENCE 1965-09-09 09:00:00 TS 17.1526 -114.750 main 810 810 P________PP___ EP081965 17.1575 -114.743 TS 45 0 17.1575 -114.743 TC 45 17.1329 -114.780 2 5 283
1965251N16248 1965 90 EP MM FLORENCE 1965-09-09 12:00:00 TS 17.2000 -115.000 45 hurdat_epa main 823 823 O________OO___ hurdat_epa EP081965 17.2000 -115.000 TS 45 0 17.2000 -115.000 TC 45 17.2000 -115.000 2 5 281
1965251N16248 1965 90 EP MM FLORENCE 1965-09-09 15:00:00 TS 17.2482 -115.249 main 837 835 P________PP___ EP081965 17.2425 -115.250 TS 45 0 17.2425 -115.250 TC 45 17.2709 -115.247 2 5 283
1965251N16248 1965 90 EP MM FLORENCE 1965-09-09 18:00:00 TS 17.3085 -115.500 45 hurdat_epa main 849 848 O________OP___ hurdat_epa EP081965 17.3000 -115.500 TS 45 0 17.3000 -115.500 TC 45 17.3425 -115.500 2 5 287
1965251N16248 1965 90 EP MM FLORENCE 1965-09-09 21:00:00 TS 17.3976 -115.757 main 862 862 P________PP___ EP081965 17.3925 -115.757 TS 45 0 17.3925 -115.757 TC 45 17.4178 -115.753 2 5 292
1965251N16248 1965 90 EP MM FLORENCE 1965-09-10 00:00:00 TS 17.5000 -116.000 45 hurdat_epa main 869 869 O________OO___ hurdat_epa EP081965 17.5000 -116.000 TS 45 0 17.5000 -116.000 TC 45 17.5000 -116.000 2 5 295
1965251N16248 1965 90 EP MM FLORENCE 1965-09-10 03:00:00 TS 17.6001 -116.203 main 877 877 P________PP___ EP081965 17.5999 -116.200 TS 45 0 17.5999 -116.200 TC 45 17.6007 -116.216 2 4 298
1965251N16248 1965 90 EP MM FLORENCE 1965-09-10 06:00:00 TS 17.7014 -116.406 45 hurdat_epa main 884 884 O________OP___ hurdat_epa EP081965 17.7000 -116.400 TS 45 0 17.7000 -116.400 TC 45 17.7071 -116.428 2 5 297
1965251N16248 1965 90 EP MM FLORENCE 1965-09-10 09:00:00 TS 17.8080 -116.638 main 893 893 P________PP___ EP081965 17.8075 -116.635 TS 45 0 17.8075 -116.635 TC 45 17.8100 -116.650 2 5 293
1965251N16248 1965 90 EP MM FLORENCE 1965-09-10 12:00:00 TS 17.9000 -116.900 45 hurdat_epa main 907 907 O________OO___ hurdat_epa EP081965 17.9000 -116.900 TS 45 0 17.9000 -116.900 TC 45 17.9000 -116.900 2 5 286
1965251N16248 1965 90 EP MM FLORENCE 1965-09-10 15:00:00 TS 17.9589 -117.190 main 916 916 P________PP___ EP081965 17.9575 -117.185 TS 45 0 17.9575 -117.185 TC 45 17.9646 -117.209 2 6 280
1965251N16248 1965 90 EP MM FLORENCE 1965-09-10 18:00:00 TS 18.0031 -117.509 45 hurdat_epa main 934 934 O________OP___ hurdat_epa EP081965 18.0000 -117.500 TS 45 0 18.0000 -117.500 TC 45 18.0153 -117.543 2 6 278
1965251N16248 1965 90 EP MM FLORENCE 1965-09-10 21:00:00 TS 18.0517 -117.862 main 950 950 P________PP___ EP081965 18.0500 -117.858 TS 45 0 18.0500 -117.858 TC 45 18.0583 -117.880 2 7 278
1965251N16248 1965 90 EP MM FLORENCE 1965-09-11 00:00:00 TS 18.1000 -118.200 45 hurdat_epa main 970 970 O________OO___ hurdat_epa EP081965 18.1000 -118.200 TS 45 0 18.1000 -118.200 TC 45 18.1000 -118.200 2 6 280
1965251N16248 1965 90 EP MM FLORENCE 1965-09-11 03:00:00 TS 18.1491 -118.466 main 991 982 P________PP___ EP081965 18.1499 -118.465 TS 45 0 18.1499 -118.465 TC 45 18.1456 -118.468 2 5 282
1965251N16248 1965 90 EP MM FLORENCE 1965-09-11 06:00:00 TS 18.1984 -118.703 45 hurdat_epa main 996 996 O________OP___ hurdat_epa EP081965 18.2000 -118.700 TS 45 0 18.2000 -118.700 TC 45 18.1921 -118.715 2 5 282
1965251N16248 1965 90 EP MM FLORENCE 1965-09-11 09:00:00 TS 18.2485 -118.945 main 1011 1010 P________PP___ EP081965 18.2499 -118.943 TS 45 0 18.2499 -118.943 TC 45 18.2425 -118.955 2 5 282
1965251N16248 1965 90 EP MM FLORENCE 1965-09-11 12:00:00 TS 18.3000 -119.200 45 hurdat_epa main 1024 1024 O________OO___ hurdat_epa EP081965 18.3000 -119.200 TS 45 0 18.3000 -119.200 TC 45 18.3000 -119.200 6 5 281
1965251N16248 1965 90 EP MM FLORENCE 1965-09-11 15:00:00 TS 18.3467 -119.490 main 1047 1039 P________PP___ EP081965 18.3425 -119.500 TS 35 0 18.3425 -119.500 TC 35 18.3635 -119.448 6 6 281
1965251N16248 1965 90 EP MM FLORENCE 1965-09-11 18:00:00 TS 18.4069 -119.781 25 hurdat_epa main 1062 1062 O________OP___ hurdat_epa EP081965 18.4000 -119.800 TD 25 -1 18.4000 -119.800 TC 25 18.4345 -119.705 6 5 286
1965251N16248 1965 90 EP MM FLORENCE 1965-09-11 21:00:00 TS 18.4965 -120.025 main 1069 1069 P________PP___ EP081965 18.4923 -120.035 TD 25 -1 18.4923 -120.035 TC 25 18.5134 -119.985 6 5 291
1965251N16248 1965 90 EP MM FLORENCE 1965-09-12 00:00:00 TS 18.6000 -120.300 25 hurdat_epa main 1085 1085 O________OO___ hurdat_epa EP081965 18.6000 -120.300 TD 25 -1 18.6000 -120.300 TC 25 18.6000 -120.300 6 6 288
1965251N16248 1965 90 EP MM FLORENCE 1965-09-12 03:00:00 TS 18.6994 -120.673 main 1110 1110 P________PP___ EP081965 18.7000 -120.678 TD 25 -1 18.7000 -120.678 TC 25 18.6968 -120.656 6 8 285
1965251N16248 1965 90 EP MM FLORENCE 1965-09-12 06:00:00 TS 18.8000 -121.090 25 hurdat_epa main 1136 1136 O________OP___ hurdat_epa EP081965 18.8000 -121.100 TD 25 -1 18.8000 -121.100 TC 25 18.7999 -121.047 6 8 285
1965251N16248 1965 90 EP MM FLORENCE 1965-09-12 09:00:00 TS 18.9005 -121.487 main 1163 1163 P________PP___ EP081965 18.8999 -121.493 TD 25 -1 18.8999 -121.493 TC 25 18.9030 -121.465 6 8 285
1965251N16248 1965 90 EP MM FLORENCE 1965-09-12 12:00:00 TS 19.0000 -121.900 25 hurdat_epa main 1191 1191 O________OO___ hurdat_epa EP081965 19.0000 -121.900 TD 25 -1 19.0000 -121.900 TC 25 19.0000 -121.900 6 8 284
1965251N16248 1965 90 EP MM FLORENCE 1965-09-12 15:00:00 TS 19.1055 -122.337 main 1212 1212 P________PP___ EP081965 19.1074 -122.342 TD 25 -1 19.1074 -122.342 TC 25 19.0979 -122.315 6 9 283
1965251N16248 1965 90 EP MM FLORENCE 1965-09-12 18:00:00 TS 19.1973 -122.789 25 hurdat_epa main 1238 1238 O________OP___ hurdat_epa EP081965 19.2000 -122.800 TD 25 -1 19.2000 -122.800 TC 25 19.1867 -122.747 6 9 281
1965251N16248 1965 90 EP MM FLORENCE 1965-09-12 21:00:00 TS 19.2632 -123.229 main 1256 1256 P________PP___ EP081965 19.2648 -123.235 TD 25 -1 19.2648 -123.235 TC 25 19.2571 -123.206 6 9 277
1965251N16248 1965 90 EP MM FLORENCE 1965-09-13 00:00:00 TS 19.3000 -123.700 25 hurdat_epa main 1290 1290 O________OO___ hurdat_epa EP081965 19.3000 -123.700 TD 25 -1 19.3000 -123.700 TC 25 19.3000 -123.700 6 9 273
1965251N16248 1965 90 EP MM FLORENCE 1965-09-13 03:00:00 TS 19.3078 -124.229 main 1325 1325 P________PP___ EP081965 19.3149 -124.228 TD 25 -1 19.3149 -124.228 TC 25 19.2793 -124.236 6 10 269
1965251N16248 1965 90 EP MM FLORENCE 1965-09-13 06:00:00 TS 19.2870 -124.801 25 hurdat_epa main 1369 1369 O________OP___ hurdat_epa EP081965 19.3000 -124.800 TD 25 -1 19.3000 -124.800 TC 25 19.2348 -124.807 6 11 266
1965251N16248 1965 90 EP MM FLORENCE 1965-09-13 09:00:00 TS 19.2275 -125.394 main 1422 1422 P________PP___ EP081965 19.2349 -125.393 TD 25 -1 19.2349 -125.393 TC 25 19.1979 -125.399 6 11 266
1965251N16248 1965 90 EP MM FLORENCE 1965-09-13 12:00:00 TS 19.2000 -126.000 25 hurdat_epa main 1468 1468 O________OO___ hurdat_epa EP081965 19.2000 -126.000 TD 25 -1 19.2000 -126.000 TC 25 19.2000 -126.000 6 11 272
1965251N16248 1965 90 EP MM FLORENCE 1965-09-13 15:00:00 TS 19.2688 -126.596 main 1508 1508 P________PP___ EP081965 19.2698 -126.600 TD 25 -1 19.2698 -126.600 TC 25 19.2649 -126.581 6 11 280
1965251N16248 1965 90 EP MM FLORENCE 1965-09-13 18:00:00 TS 19.3948 -127.194 25 hurdat_epa main 1549 1549 O________OP___ hurdat_epa EP081965 19.4000 -127.200 TD 25 -1 19.4000 -127.200 TC 25 19.3739 -127.170 6 12 283
1965251N16248 1965 90 EP MM FLORENCE 1965-09-13 21:00:00 TS 19.5319 -127.783 main 1591 1591 P________PP___ EP081965 19.5346 -127.785 TD 25 -1 19.5346 -127.785 TC 25 19.5210 -127.775 6 12 285
1965251N16248 1965 90 EP MM FLORENCE 1965-09-14 00:00:00 TS 19.7000 -128.400 25 hurdat_epa main 1628 1628 O________OO___ hurdat_epa EP081965 19.7000 -128.400 TD 25 -1 19.7000 -128.400 TC 25 19.7000 -128.400 6 13 286
1965251N16248 1965 90 EP MM FLORENCE 1965-09-14 03:00:00 TS 19.8847 -129.086 main 1675 1675 P________PP___ EP081965 19.8850 -129.093 TD 25 -1 19.8850 -129.093 TC 25 19.8838 -129.058 6 14 287
1965251N16248 1965 90 EP MM FLORENCE 1965-09-14 06:00:00 TS 20.0994 -129.787 25 hurdat_epa main 1724 1724 O________OP___ hurdat_epa EP081965 20.1000 -129.800 TD 25 -1 20.1000 -129.800 TC 25 20.0972 -129.735 6 14 289
1965251N16248 1965 90 EP MM FLORENCE 1965-09-14 09:00:00 TS 20.3351 -130.450 main 1775 1769 P________PP___ EP081965 20.3347 -130.458 TD 25 -1 20.3347 -130.458 TC 25 20.3369 -130.421 6 13 292
1965251N16248 1965 90 EP MM FLORENCE 1965-09-14 12:00:00 TS 20.6000 -131.100 25 hurdat_epa main 1812 1812 O________OO___ hurdat_epa EP081965 20.6000 -131.100 TD 25 -1 20.6000 -131.100 TC 25 20.6000 -131.100 6 13 294
1965251N16248 1965 90 EP MM FLORENCE 1965-09-14 15:00:00 TS 20.8894 -131.754 main 1861 1861 P________PP___ EP081965 20.8923 -131.750 TD 25 -1 20.8923 -131.750 TC 25 20.8779 -131.770 6 14 296
1965251N16248 1965 90 EP MM FLORENCE 1965-09-14 18:00:00 TS 21.1954 -132.406 25 hurdat_epa main 1878 1878 O________OP___ hurdat_epa EP081965 21.2000 -132.400 TD 25 -1 21.2000 -132.400 TC 25 21.1768 -132.430 6 14 297
1965251N16248 1965 90 EP MM FLORENCE 1965-09-14 21:00:00 TS 21.4973 -133.061 main 1894 1892 P________PP___ EP081965 21.4998 -133.058 TD 25 -1 21.4998 -133.058 TC 25 21.4874 -133.076 6 13 297
1965251N16248 1965 90 EP MM FLORENCE 1965-09-15 00:00:00 TS 21.8000 -133.700 25 hurdat_epa main 1907 1905 O________OO___ hurdat_epa EP081965 21.8000 -133.700 TD 25 -1 21.8000 -133.700 TC 25 21.8000 -133.700 6 13 297
1965251N16248 1965 90 EP MM FLORENCE 1965-09-15 03:00:00 TS 22.1013 -134.312 main 1921 1920 P________PP___ EP081965 22.0998 -134.315 TD 25 -1 22.0998 -134.315 TC 25 22.1072 -134.298 6 13 299
1965251N16248 1965 90 EP MM FLORENCE 1965-09-15 06:00:00 TS 22.4018 -134.895 25 hurdat_epa main 1938 1937 O________OP___ hurdat_epa EP081965 22.4000 -134.900 TD 25 -1 22.4000 -134.900 TC 25 22.4088 -134.876 6 12 300
1965251N16248 1965 90 EP MM FLORENCE 1965-09-15 09:00:00 TS 22.7015 -135.454 main 1957 1949 P________PP___ EP081965 22.7004 -135.457 TD 25 -1 22.7004 -135.457 TC 25 22.7059 -135.441 6 12 300
1965251N16248 1965 90 EP MM FLORENCE 1965-09-15 12:00:00 TS 23.0000 -136.000 25 hurdat_epa main 1970 O________OO___ hurdat_epa EP081965 23.0000 -136.000 TD 25 -1 23.0000 -136.000 TC 25 23.0000 -136.000 6 12 301

About IBTrACS Database

This database is a web-friendly format of International Best Track Archive for Climate Stewardship (IBTrACS), a global best track data archive curated by NOAA dating back to 1842.

Updated: 2021-12-01